createdAt,value
2022-11-24T04:09:55.022Z,100.00
2022-11-24T04:12:57.590Z,100.00
2022-11-24T04:15:59.745Z,100.00
2022-11-24T04:19:02.212Z,100.00
2022-11-24T04:22:04.269Z,100.00
2022-11-24T04:25:07.487Z,100.00
2022-11-24T04:28:09.756Z,100.00
2022-11-24T04:31:12.107Z,100.00
2022-11-24T04:34:14.201Z,100.00
2022-11-24T04:37:16.536Z,100.00
2022-11-24T04:40:19.227Z,100.00
2022-11-24T04:43:21.794Z,100.00
2022-11-24T04:46:23.884Z,100.00
2022-11-24T04:49:26.304Z,100.00
2022-11-24T04:52:30.393Z,100.00
2022-11-24T04:55:32.729Z,100.00
2022-11-24T04:58:35.082Z,100.00
2022-11-24T05:01:37.448Z,100.00
2022-11-24T05:04:39.696Z,100.00
2022-11-24T05:07:42.117Z,100.00
2022-11-24T05:10:44.343Z,100.00
2022-11-24T05:13:46.727Z,100.00
2022-11-24T05:16:49.067Z,100.00
2022-11-24T05:19:51.436Z,100.00
2022-11-24T05:22:53.566Z,100.00
2022-11-24T05:26:05.268Z,100.00
2022-11-24T05:29:07.367Z,100.00
2022-11-24T05:32:09.876Z,100.00
2022-11-24T05:35:12.034Z,100.00
2022-11-24T05:38:15.570Z,100.00
2022-11-24T05:41:17.702Z,100.00
2022-11-24T05:44:20.068Z,100.00
2022-11-24T05:47:22.159Z,100.00
2022-11-24T05:50:24.664Z,100.00
2022-11-24T05:53:27.080Z,100.00
2022-11-24T05:56:29.976Z,100.00
2022-11-24T05:59:32.067Z,100.00
2022-11-24T06:02:34.507Z,100.00
2022-11-24T06:05:36.966Z,100.00
2022-11-24T06:08:39.023Z,100.00
2022-11-24T06:11:41.874Z,100.00
2022-11-24T06:14:43.980Z,100.00
2022-11-24T06:17:54.663Z,100.00
2022-11-24T06:21:10.183Z,100.00
2022-11-24T06:24:14.695Z,100.00
2022-11-24T06:27:16.870Z,100.00
2022-11-24T06:30:19.405Z,100.00
2022-11-24T06:33:21.466Z,100.00
2022-11-24T06:36:23.771Z,100.00
2022-11-24T06:39:25.924Z,100.00
2022-11-24T06:42:28.714Z,100.00
2022-11-24T06:45:30.798Z,100.00
2022-11-24T06:48:33.244Z,100.00
2022-11-24T06:51:35.497Z,100.00
2022-11-24T06:54:37.960Z,100.00
2022-11-24T06:57:40.012Z,100.00
2022-11-24T07:00:42.712Z,100.00
2022-11-24T07:03:45.304Z,100.00
2022-11-24T07:06:47.706Z,100.00
2022-11-24T07:09:49.863Z,100.00
2022-11-24T07:12:52.230Z,100.00
2022-11-24T07:15:54.275Z,100.00
2022-11-24T07:18:57.342Z,100.00
2022-11-24T07:21:59.648Z,100.00
2022-11-24T07:25:02.646Z,99.77
2022-11-24T07:28:05.389Z,97.22
2022-11-24T07:31:13.222Z,92.65
2022-11-24T07:34:15.307Z,88.89
2022-11-24T07:37:17.751Z,89.95
2022-11-24T07:40:19.789Z,89.13
2022-11-24T07:43:24.482Z,89.72
2022-11-24T07:46:26.600Z,90.05
2022-11-24T07:49:28.990Z,91.06
2022-11-24T07:52:31.142Z,92.85
2022-11-24T07:55:33.475Z,93.87
2022-11-24T07:58:37.278Z,92.02
2022-11-24T08:01:39.764Z,93.16
2022-11-24T08:04:42.346Z,90.55
2022-11-24T08:07:44.444Z,92.08
2022-11-24T08:10:47.055Z,92.00
2022-11-24T08:13:49.177Z,92.31
2022-11-24T08:16:51.534Z,91.38
2022-11-24T08:19:53.686Z,90.58
2022-11-24T08:23:00.152Z,89.18
2022-11-24T08:26:14.256Z,87.44
2022-11-24T08:29:17.107Z,87.76
2022-11-24T08:32:22.485Z,91.40
2022-11-24T08:35:25.010Z,89.82
2022-11-24T08:38:27.096Z,89.68
2022-11-24T08:41:30.747Z,87.89
2022-11-24T08:44:33.143Z,88.50
2022-11-24T08:47:35.828Z,85.72
2022-11-24T08:50:37.893Z,87.70
2022-11-24T08:53:41.499Z,87.45
2022-11-24T08:56:43.588Z,89.16
2022-11-24T08:59:46.250Z,85.30
2022-11-24T09:02:57.269Z,86.03
2022-11-24T09:05:59.568Z,83.08
2022-11-24T09:09:01.871Z,81.29
2022-11-24T09:12:05.229Z,81.82
2022-11-24T09:15:09.933Z,82.90
2022-11-24T09:18:12.249Z,87.92
2022-11-24T09:21:21.091Z,79.76
2022-11-24T09:24:23.562Z,81.48
2022-11-24T09:27:25.691Z,85.56
2022-11-24T09:30:28.556Z,81.73
2022-11-24T09:33:31.925Z,81.31
2022-11-24T09:36:35.364Z,81.98
2022-11-24T09:39:37.514Z,80.10
2022-11-24T09:43:05.741Z,79.00
2022-11-24T09:46:28.993Z,77.92
2022-11-24T09:49:34.473Z,74.78
2022-11-24T09:53:01.319Z,76.71
2022-11-24T09:56:33.337Z,73.32
2022-11-24T09:59:35.787Z,76.11
2022-11-24T10:02:38.636Z,76.75
2022-11-24T10:05:42.042Z,78.06
2022-11-24T10:09:11.940Z,82.93
2022-11-24T10:12:51.412Z,79.00
2022-11-24T10:16:18.252Z,82.40
2022-11-24T10:19:37.092Z,83.75
2022-11-24T10:22:50.913Z,83.96
2022-11-24T10:26:00.507Z,83.40
2022-11-24T10:29:13.839Z,81.60
2022-11-24T10:32:21.829Z,82.49
2022-11-24T10:35:37.956Z,83.52
2022-11-24T10:39:02.252Z,83.01
2022-11-24T10:42:25.910Z,82.63
2022-11-24T10:45:29.223Z,82.84
2022-11-24T10:48:39.640Z,82.92
2022-11-24T10:52:02.068Z,82.04
2022-11-24T10:55:05.497Z,83.71
2022-11-24T10:58:17.364Z,82.29
2022-11-24T11:01:27.803Z,82.17
2022-11-24T11:04:35.436Z,81.51
2022-11-24T11:07:37.623Z,82.83
2022-11-24T11:10:41.518Z,81.16
2022-11-24T11:14:04.341Z,82.45
2022-11-24T11:17:36.815Z,81.12
2022-11-24T11:20:38.909Z,80.60
2022-11-24T11:23:43.335Z,79.15
2022-11-24T11:26:45.513Z,80.10
2022-11-24T11:36:51.589Z,80.38
2022-11-24T11:39:55.341Z,79.99
2022-11-24T11:43:12.841Z,79.03
2022-11-24T11:46:16.882Z,81.06
2022-11-24T11:49:19.935Z,80.16
2022-11-24T11:52:40.694Z,79.12
2022-11-24T11:55:49.681Z,79.62
2022-11-24T11:58:55.023Z,78.83
2022-11-24T12:02:28.760Z,78.85
2022-11-24T12:05:47.443Z,78.69
2022-11-24T12:09:23.467Z,78.61
2022-11-24T12:12:28.633Z,79.36
2022-11-24T12:15:30.922Z,78.43
2022-11-24T12:18:57.461Z,78.48
2022-11-24T12:22:41.731Z,78.26
2022-11-24T12:26:09.177Z,80.06
2022-11-24T12:29:36.618Z,82.42
2022-11-24T12:32:54.448Z,82.00
2022-11-24T12:36:09.296Z,82.90
2022-11-24T12:39:27.693Z,82.83
2022-11-24T12:43:16.788Z,82.55
2022-11-24T12:46:44.998Z,82.16
2022-11-24T12:50:01.622Z,82.92
2022-11-24T12:53:22.294Z,84.56
2022-11-24T12:56:36.509Z,86.09
2022-11-24T13:00:05.972Z,86.28
2022-11-24T13:03:26.519Z,86.70
2022-11-24T13:06:34.939Z,85.56
2022-11-24T13:09:37.519Z,86.75
2022-11-24T13:13:19.141Z,87.11
2022-11-24T13:16:48.482Z,86.68
2022-11-24T13:19:44.605Z,86.59
2022-11-24T13:22:58.549Z,88.22
2022-11-24T13:26:16.077Z,86.91
2022-11-24T13:29:27.195Z,87.32
2022-11-24T13:32:32.299Z,87.11
2022-11-24T13:35:34.528Z,87.04
2022-11-24T13:38:45.964Z,88.64
2022-11-24T13:41:47.991Z,87.87
2022-11-24T13:45:26.511Z,87.92
2022-11-24T13:48:28.522Z,87.84
2022-11-24T13:51:30.902Z,89.47
2022-11-24T13:54:33.549Z,88.06
2022-11-24T13:57:39.837Z,88.09
2022-11-24T14:01:00.334Z,88.65
2022-11-24T14:04:43.200Z,89.54
2022-11-24T14:07:37.253Z,88.63
2022-11-24T14:10:41.992Z,88.40
2022-11-24T14:13:44.361Z,89.62
2022-11-24T14:16:46.748Z,88.83
2022-11-24T14:19:51.666Z,89.66
2022-11-24T14:22:54.453Z,90.00
2022-11-24T14:25:56.609Z,90.23
2022-11-24T14:29:23.125Z,92.20
2022-11-24T14:32:25.447Z,92.83
2022-11-24T14:35:32.292Z,92.17
2022-11-24T14:38:34.429Z,93.17
2022-11-24T14:41:36.800Z,93.77
2022-11-24T14:44:41.920Z,94.28
2022-11-24T14:47:45.090Z,95.05
2022-11-24T14:50:47.357Z,95.33
2022-11-24T14:53:56.393Z,96.82
2022-11-24T14:57:04.593Z,96.28
2022-11-24T15:00:31.382Z,96.17
2022-11-24T15:03:33.640Z,94.59
2022-11-24T15:06:35.987Z,97.05
2022-11-24T15:09:48.687Z,95.98
2022-11-24T15:12:58.416Z,96.44
2022-11-24T15:16:08.843Z,97.51
2022-11-24T15:19:15.888Z,97.60
2022-11-24T15:22:47.325Z,96.88
2022-11-24T15:26:02.444Z,96.56
2022-11-24T15:29:04.478Z,96.26
2022-11-24T15:32:14.428Z,97.49
2022-11-24T15:35:16.591Z,98.75
2022-11-24T15:38:19.418Z,97.56
2022-11-24T15:41:29.463Z,98.12
2022-11-24T15:44:33.019Z,98.89
2022-11-24T15:47:35.381Z,98.57
2022-11-24T15:50:37.835Z,98.33
2022-11-24T15:53:44.631Z,98.43
2022-11-24T15:56:47.358Z,99.11
2022-11-24T15:59:49.432Z,99.73
2022-11-24T16:02:51.735Z,98.98
2022-11-24T16:05:55.361Z,99.32
2022-11-24T16:08:58.129Z,100.00
2022-11-24T16:12:00.529Z,99.60
2022-11-24T16:15:02.758Z,100.00
2022-11-24T16:18:05.815Z,100.00
2022-11-24T16:21:08.843Z,100.00
2022-11-24T16:24:11.329Z,100.00
2022-11-24T16:27:13.440Z,100.00
